Time;durP1;ratioP1;P1;durP2;ratioP2;P2;SDS_P1;SDS_P2;PMS_P1;PMS_P2;Temp;Humidity;BMP_temperature;BMP_pressure;BME280_temperature;BME280_humidity;BME280_pressure;Samples;Min_cycle;Max_cycle;Signal;HPM_P1;HPM_P2
2023/02/03 00:04:29;;;;;;;7.50;2.10;;;9.80;99.90;;;;;;5028761;28;20052;-37
2023/02/03 00:06:55;;;;;;;9.50;1.92;;;9.80;99.90;;;;;;5019412;28;20029;-47
2023/02/03 00:09:21;;;;;;;10.30;1.95;;;9.80;99.90;;;;;;5020715;28;20498;-43
2023/02/03 00:11:46;;;;;;;6.30;1.85;;;9.80;99.90;;;;;;5014870;28;20061;-44
2023/02/03 00:14:12;;;;;;;9.07;3.28;;;9.90;99.90;;;;;;5047641;28;20124;-49
2023/02/03 00:16:38;;;;;;;18.10;2.60;;;9.80;99.90;;;;;;5025964;28;20030;-42
2023/02/03 00:19:03;;;;;;;11.80;2.50;;;9.90;99.90;;;;;;5028360;28;20056;-46
2023/02/03 00:21:29;;;;;;;12.57;2.42;;;9.90;99.90;;;;;;5033257;28;20030;-45
2023/02/03 00:23:55;;;;;;;14.25;3.67;;;9.90;99.90;;;;;;5028927;28;20038;-45
2023/02/03 00:26:20;;;;;;;7.78;2.15;;;9.90;99.90;;;;;;5026018;28;20030;-42
2023/02/03 00:28:46;;;;;;;7.50;2.00;;;9.90;99.90;;;;;;5033457;28;20555;-37
2023/02/03 00:31:21;;;;;;;13.30;2.53;;;9.90;99.90;;;;;;5021282;28;21494;-35
2023/02/03 00:33:52;;;;;;;8.48;1.70;;;9.90;99.90;;;;;;5032421;28;20363;-37
2023/02/03 00:36:17;;;;;;;17.42;3.03;;;9.90;99.90;;;;;;5033671;28;20040;-44
2023/02/03 00:38:43;;;;;;;13.30;2.20;;;9.90;99.90;;;;;;5022100;28;20546;-49
2023/02/03 00:41:08;;;;;;;15.90;3.28;;;9.90;99.90;;;;;;5013969;28;20034;-43
2023/02/03 00:43:34;;;;;;;6.53;2.00;;;9.90;99.90;;;;;;5013906;28;20580;-41
2023/02/03 00:46:00;;;;;;;8.68;1.83;;;9.90;99.90;;;;;;5029081;28;20033;-41
2023/02/03 00:48:25;;;;;;;11.52;1.95;;;9.90;99.90;;;;;;5033329;28;20028;-35
2023/02/03 00:50:51;;;;;;;10.88;2.05;;;9.90;99.90;;;;;;5033483;28;20481;-41
2023/02/03 00:53:17;;;;;;;10.52;2.33;;;9.80;99.90;;;;;;5030001;28;20030;-39
2023/02/03 00:55:43;;;;;;;10.40;2.70;;;9.80;99.90;;;;;;5013380;28;20040;-40
2023/02/03 00:58:09;;;;;;;8.25;1.98;;;9.80;99.90;;;;;;5016651;28;20033;-40
2023/02/03 01:00:34;;;;;;;4.30;1.73;;;9.80;99.90;;;;;;5024748;28;20033;-39
2023/02/03 01:03:00;;;;;;;10.95;1.95;;;9.80;99.90;;;;;;5024590;28;20030;-34
2023/02/03 01:05:26;;;;;;;11.95;2.40;;;9.80;99.90;;;;;;5013790;28;20140;-37
2023/02/03 01:07:51;;;;;;;5.15;2.03;;;9.80;99.90;;;;;;5015176;28;20025;-41
2023/02/03 01:10:17;;;;;;;7.55;1.88;;;9.80;99.90;;;;;;5019197;28;20047;-40
2023/02/03 01:12:42;;;;;;;12.80;1.98;;;9.80;99.90;;;;;;5031583;28;20021;-38
2023/02/03 01:15:08;;;;;;;9.00;1.75;;;9.80;99.90;;;;;;5033170;28;20456;-41
2023/02/03 01:17:34;;;;;;;4.40;1.48;;;9.80;99.90;;;;;;5025603;28;20038;-40
2023/02/03 01:19:59;;;;;;;3.15;1.73;;;9.80;99.90;;;;;;5013303;28;20034;-36
2023/02/03 01:22:27;;;;;;;8.00;1.40;;;9.80;99.90;;;;;;5012553;28;20540;-39
2023/02/03 01:24:53;;;;;;;10.90;2.25;;;9.80;99.90;;;;;;5013293;28;20038;-38
2023/02/03 01:27:18;;;;;;;4.57;2.20;;;9.80;99.90;;;;;;5032825;28;20545;-37
2023/02/03 01:29:44;;;;;;;21.20;3.28;;;9.70;99.90;;;;;;5024821;28;20030;-39
2023/02/03 01:32:10;;;;;;;7.57;2.40;;;9.80;99.90;;;;;;5018973;28;20022;-40
2023/02/03 01:34:35;;;;;;;13.73;1.92;;;9.70;99.90;;;;;;5029058;28;20034;-36
2023/02/03 01:37:01;;;;;;;6.63;1.73;;;9.70;99.90;;;;;;5029826;28;20033;-38
2023/02/03 01:39:27;;;;;;;8.38;1.65;;;9.70;99.90;;;;;;5027402;28;20474;-40
2023/02/03 01:41:54;;;;;;;13.90;1.80;;;9.70;99.90;;;;;;5012850;28;20030;-41
2023/02/03 01:44:39;;;;;;;9.40;1.20;;;9.80;99.90;;;;;;5024571;28;20441;-39
2023/02/03 01:47:17;;;;;;;14.10;2.55;;;9.80;99.90;;;;;;5013195;28;20131;-41
2023/02/03 01:49:51;;;;;;;3.88;1.60;;;9.80;99.90;;;;;;5012732;28;20022;-38
2023/02/03 01:52:17;;;;;;;5.57;1.25;;;9.70;99.90;;;;;;5030362;28;20567;-39
2023/02/03 01:54:46;;;;;;;8.43;2.38;;;9.80;99.90;;;;;;5032724;28;20029;-37
2023/02/03 01:57:20;;;;;;;16.33;2.03;;;9.80;99.90;;;;;;5031220;28;20033;-40
2023/02/03 01:59:47;;;;;;;9.07;2.60;;;9.70;99.90;;;;;;5029208;28;20076;-39
2023/02/03 02:02:13;;;;;;;12.32;2.95;;;9.80;99.90;;;;;;5029218;28;20029;-41
2023/02/03 02:05:03;;;;;;;9.75;2.97;;;9.80;99.90;;;;;;5027413;28;20057;-40
2023/02/03 02:07:30;;;;;;;5.55;1.70;;;9.90;99.90;;;;;;5030908;28;20041;-38
2023/02/03 02:10:15;;;;;;;5.70;1.83;;;9.90;99.90;;;;;;5024407;28;20499;-36
2023/02/03 02:12:41;;;;;;;10.32;1.70;;;9.90;99.90;;;;;;5019489;28;20034;-51
2023/02/03 02:15:07;;;;;;;8.85;1.50;;;9.80;99.90;;;;;;5021332;28;20098;-44
2023/02/03 02:17:55;;;;;;;12.18;2.15;;;9.80;99.90;;;;;;5036708;28;20037;-46
2023/02/03 02:20:32;;;;;;;13.57;2.55;;;9.70;99.90;;;;;;5035453;28;20060;-48
2023/02/03 02:23:17;;;;;;;12.82;2.70;;;9.80;99.90;;;;;;5035313;28;20492;-50
2023/02/03 02:25:50;;;;;;;3.92;1.25;;;9.80;99.90;;;;;;5029274;28;20509;-50
2023/02/03 02:28:50;;;;;;;9.18;3.15;;;9.80;99.90;;;;;;5016729;28;20022;-40
2023/02/03 02:31:15;;;;;;;4.28;1.55;;;9.80;99.90;;;;;;5030629;28;20041;-38
2023/02/03 02:34:02;;;;;;;5.75;1.70;;;9.80;99.90;;;;;;5036135;28;20500;-38
2023/02/03 02:36:40;;;;;;;8.98;1.95;;;9.80;99.90;;;;;;5033835;28;20047;-34
2023/02/03 02:39:35;;;;;;;6.07;1.20;;;9.90;99.90;;;;;;5034206;28;20152;-39
2023/02/03 02:42:07;;;;;;;8.85;1.75;;;9.80;99.90;;;;;;5034647;28;20029;-39
2023/02/03 02:44:39;;;;;;;3.00;1.33;;;9.90;99.90;;;;;;5033429;28;20057;-38
2023/02/03 02:47:19;;;;;;;10.10;1.35;;;9.90;99.90;;;;;;5035961;28;20037;-40
2023/02/03 02:49:59;;;;;;;11.93;1.65;;;9.90;99.90;;;;;;5034703;28;20026;-39
2023/02/03 02:52:28;;;;;;;4.13;1.63;;;10.00;99.90;;;;;;5030031;28;20108;-45
2023/02/03 02:54:58;;;;;;;2.42;0.95;;;9.90;99.90;;;;;;5027419;28;20489;-59
2023/02/03 02:57:26;;;;;;;6.30;1.08;;;10.00;99.90;;;;;;5035945;28;20429;-46
2023/02/03 02:59:53;;;;;;;6.90;1.38;;;10.00;99.90;;;;;;5032965;28;20095;-43
2023/02/03 03:02:19;;;;;;;3.45;1.20;;;10.10;99.90;;;;;;5028903;28;20060;-44
2023/02/03 03:04:47;;;;;;;3.25;0.65;;;10.10;99.90;;;;;;5033767;28;20037;-37
2023/02/03 03:07:15;;;;;;;;;;;10.10;99.90;;;;;;5033636;28;20124;-42
2023/02/03 03:09:47;;;;;;;6.72;0.90;;;10.20;99.90;;;;;;5033148;28;20420;-44
2023/02/03 03:12:18;;;;;;;4.35;0.93;;;10.20;99.90;;;;;;5035202;28;20029;-46
2023/02/03 03:15:16;;;;;;;8.13;2.38;;;10.10;99.90;;;;;;5035571;28;20029;-47
2023/02/03 03:18:07;;;;;;;8.95;2.75;;;10.00;99.90;;;;;;5030105;28;20498;-42
2023/02/03 03:20:34;;;;;;;3.17;1.35;;;10.00;99.90;;;;;;5033510;28;20040;-44
2023/02/03 03:23:05;;;;;;;6.05;1.73;;;10.00;99.90;;;;;;5035146;28;20497;-38
2023/02/03 03:25:42;;;;;;;10.48;1.73;;;10.00;99.90;;;;;;5021595;28;20477;-45
2023/02/03 03:28:14;;;;;;;11.30;2.45;;;10.00;99.90;;;;;;5035440;28;20029;-47
2023/02/03 03:30:40;;;;;;;2.80;1.17;;;10.00;99.90;;;;;;5035199;28;20159;-41
2023/02/03 03:33:07;;;;;;;2.80;1.60;;;9.90;99.90;;;;;;5033830;28;20028;-38
2023/02/03 03:36:06;;;;;;;3.97;1.88;;;9.90;99.90;;;;;;5033534;28;20382;-39
2023/02/03 03:38:36;;;;;;;3.60;1.27;;;9.80;99.90;;;;;;5033868;28;20038;-38
2023/02/03 03:41:13;;;;;;;5.15;1.38;;;9.90;99.90;;;;;;5035034;28;20108;-40
2023/02/03 03:43:42;;;;;;;4.95;1.27;;;9.90;99.90;;;;;;5035025;28;20033;-36
2023/02/03 03:46:11;;;;;;;6.55;1.48;;;9.90;99.90;;;;;;5034812;28;20029;-38
2023/02/03 03:48:49;;;;;;;5.70;1.08;;;9.90;99.90;;;;;;5024493;28;20022;-37
2023/02/03 03:51:22;;;;;;;1.88;1.13;;;10.00;99.90;;;;;;5030649;28;20108;-38
2023/02/03 03:53:50;;;;;;;3.25;1.05;;;10.10;99.90;;;;;;5034676;28;20117;-36
2023/02/03 03:56:21;;;;;;;2.05;0.93;;;10.10;99.90;;;;;;5034880;28;20033;-36
2023/02/03 03:58:49;;;;;;;5.00;1.00;;;10.10;99.90;;;;;;5014695;28;20034;-35
2023/02/03 04:01:16;;;;;;;7.53;1.10;;;10.10;99.90;;;;;;5030307;28;20599;-37
2023/02/03 04:03:47;;;;;;;5.35;1.05;;;10.20;99.90;;;;;;5034703;28;20051;-36
2023/02/03 04:06:13;;;;;;;5.55;1.58;;;10.20;99.90;;;;;;5033257;28;20029;-39
2023/02/03 04:08:38;;;;;;;4.00;1.38;;;10.20;99.90;;;;;;5033626;28;20428;-45
2023/02/03 04:11:05;;;;;;;7.60;1.83;;;10.30;99.90;;;;;;5033475;28;20413;-44
2023/02/03 04:13:31;;;;;;;6.68;0.80;;;10.20;99.90;;;;;;5018048;28;20029;-36
2023/02/03 04:15:56;;;;;;;3.10;1.42;;;10.20;99.90;;;;;;5020874;28;20470;-40
2023/02/03 04:18:22;;;;;;;5.65;1.17;;;10.30;99.90;;;;;;5032911;28;20083;-40
2023/02/03 04:20:48;;;;;;;3.10;1.25;;;10.30;99.90;;;;;;5023453;28;20063;-38
2023/02/03 04:23:14;;;;;;;12.60;0.93;;;10.30;99.90;;;;;;5013843;28;20033;-39
2023/02/03 04:25:39;;;;;;;7.00;1.73;;;10.30;99.90;;;;;;5020047;28;20022;-39
2023/02/03 04:28:05;;;;;;;7.65;2.25;;;10.30;99.90;;;;;;5033970;28;20036;-36
2023/02/03 04:30:31;;;;;;;7.07;1.17;;;10.30;99.90;;;;;;5019481;28;20379;-43
2023/02/03 04:32:57;;;;;;;6.05;1.83;;;10.30;99.90;;;;;;5014198;28;20038;-43
2023/02/03 04:35:23;;;;;;;9.65;2.03;;;10.30;99.90;;;;;;5030384;28;20500;-44
2023/02/03 04:37:48;;;;;;;12.05;1.13;;;10.40;99.90;;;;;;5014191;28;20501;-42
2023/02/03 04:40:14;;;;;;;4.50;0.82;;;10.40;99.90;;;;;;5026341;28;20512;-46
2023/02/03 04:42:40;;;;;;;3.20;0.82;;;10.40;99.90;;;;;;5031958;28;20071;-50
2023/02/03 04:45:08;;;;;;;5.05;1.00;;;10.30;99.90;;;;;;5033870;28;20105;-37
2023/02/03 04:47:33;;;;;;;6.05;1.17;;;10.30;99.90;;;;;;5019197;28;20432;-38
2023/02/03 04:49:59;;;;;;;1.20;0.88;;;10.30;99.90;;;;;;5031483;28;20030;-39
2023/02/03 04:52:25;;;;;;;6.78;0.93;;;10.20;99.90;;;;;;5033779;28;20044;-34
2023/02/03 04:54:50;;;;;;;1.77;0.63;;;10.30;99.90;;;;;;5032791;28;20128;-34
2023/02/03 04:57:16;;;;;;;14.23;2.00;;;10.30;99.90;;;;;;5031728;28;20120;-40
2023/02/03 04:59:42;;;;;;;5.18;1.00;;;10.40;99.90;;;;;;5013298;28;20386;-38
2023/02/03 05:02:07;;;;;;;3.38;0.80;;;10.30;99.90;;;;;;5015234;28;20498;-35
2023/02/03 05:04:33;;;;;;;7.78;1.65;;;10.20;99.90;;;;;;5018623;28;20034;-40
2023/02/03 05:06:59;;;;;;;7.82;1.52;;;10.30;99.90;;;;;;5015966;28;20032;-40
2023/02/03 05:09:25;;;;;;;5.72;1.10;;;10.20;99.90;;;;;;5031511;28;20516;-39
2023/02/03 05:11:51;;;;;;;9.20;1.00;;;10.20;99.90;;;;;;5031603;28;20513;-33
2023/02/03 05:14:17;;;;;;;7.78;0.75;;;10.20;99.90;;;;;;5013654;28;20034;-35
2023/02/03 05:16:42;;;;;;;5.90;0.95;;;10.10;99.90;;;;;;5014316;28;20501;-38
2023/02/03 05:19:08;;;;;;;11.15;1.25;;;10.10;99.90;;;;;;5027703;28;20037;-41
2023/02/03 05:21:33;;;;;;;7.82;1.00;;;10.10;99.90;;;;;;5029169;28;20025;-39
2023/02/03 05:24:00;;;;;;;7.22;1.67;;;10.20;99.90;;;;;;5023709;28;20079;-37
2023/02/03 05:26:25;;;;;;;3.72;0.95;;;10.20;99.90;;;;;;5032354;28;20481;-39
2023/02/03 05:28:51;;;;;;;6.13;1.10;;;10.30;99.90;;;;;;5030032;28;20033;-40
2023/02/03 05:31:17;;;;;;;11.90;0.65;;;10.30;99.90;;;;;;5029084;28;20033;-36
2023/02/03 05:33:42;;;;;;;9.50;1.67;;;10.20;99.90;;;;;;5025048;28;20042;-40
2023/02/03 05:36:08;;;;;;;4.72;1.15;;;10.20;99.90;;;;;;5026416;28;20032;-38
2023/02/03 05:38:34;;;;;;;6.85;0.95;;;10.10;99.90;;;;;;5031629;28;20505;-36
2023/02/03 05:43:43;;;;;;;6.05;1.58;;;10.20;99.90;;;;;;5033026;28;20445;-50
2023/02/03 05:46:09;;;;;;;3.30;1.00;;;10.10;99.90;;;;;;5027903;28;20029;-40
2023/02/03 05:48:35;;;;;;;4.22;0.82;;;10.10;99.90;;;;;;5030074;28;20028;-37
2023/02/03 05:51:01;;;;;;;4.18;1.02;;;10.20;99.90;;;;;;5018815;28;20498;-39
2023/02/03 05:53:26;;;;;;;6.18;0.88;;;10.20;99.90;;;;;;5030613;28;20022;-41
2023/02/03 05:55:53;;;;;;;8.63;2.72;;;10.20;99.90;;;;;;5032102;28;20029;-37
2023/02/03 05:58:18;;;;;;;11.25;1.75;;;10.10;99.90;;;;;;5032264;28;20033;-37
2023/02/03 06:00:44;;;;;;;8.68;0.90;;;10.10;99.90;;;;;;5024097;28;20478;-45
2023/02/03 06:03:10;;;;;;;5.22;1.20;;;10.10;99.90;;;;;;5023103;28;20041;-43
2023/02/03 06:05:39;;;;;;;10.80;1.30;;;10.20;99.90;;;;;;5012057;28;20053;-43
2023/02/03 06:08:06;;;;;;;8.73;1.77;;;10.20;99.90;;;;;;5030511;28;20410;-42
2023/02/03 06:10:32;;;;;;;3.85;1.20;;;10.20;99.90;;;;;;5027482;28;20049;-47
2023/02/03 06:12:58;;;;;;;14.73;1.30;;;10.20;99.90;;;;;;5032620;28;20030;-54
2023/02/03 06:15:23;;;;;;;3.75;1.13;;;10.10;99.90;;;;;;5029922;28;20490;-42
2023/02/03 06:17:49;;;;;;;8.32;1.25;;;10.10;99.90;;;;;;5030279;28;20037;-46
2023/02/03 06:20:17;;;;;;;5.25;1.00;;;10.10;99.90;;;;;;5025196;28;20116;-43
2023/02/03 06:22:43;;;;;;;5.68;1.38;;;10.10;99.90;;;;;;5019645;28;20022;-47
2023/02/03 06:25:09;;;;;;;7.78;1.45;;;10.20;99.90;;;;;;5023245;28;20037;-43
2023/02/03 06:27:35;;;;;;;4.32;1.20;;;10.10;99.90;;;;;;5032046;28;20044;-44
2023/02/03 06:30:01;;;;;;;7.63;1.13;;;10.20;99.90;;;;;;5024272;28;20390;-46
2023/02/03 06:32:27;;;;;;;4.75;0.90;;;10.10;99.90;;;;;;5026791;28;20028;-43
2023/02/03 06:34:53;;;;;;;9.23;1.92;;;10.20;99.90;;;;;;5029757;28;20766;-44
2023/02/03 06:37:19;;;;;;;5.78;1.23;;;10.10;99.90;;;;;;5030073;28;20039;-38
2023/02/03 06:39:44;;;;;;;7.22;1.45;;;10.10;99.90;;;;;;5023632;28;20573;-45
2023/02/03 06:42:10;;;;;;;7.55;1.05;;;10.10;99.90;;;;;;5020231;28;20390;-42
2023/02/03 06:44:36;;;;;;;6.55;1.77;;;10.10;99.90;;;;;;5021541;28;20117;-48
2023/02/03 06:47:02;;;;;;;5.72;1.15;;;10.10;99.90;;;;;;5029589;28;20033;-48
2023/02/03 06:49:28;;;;;;;15.23;1.45;;;10.10;99.90;;;;;;5033296;28;20468;-40
2023/02/03 06:51:54;;;;;;;1.50;0.77;;;10.10;99.90;;;;;;5016072;28;20014;-46
2023/02/03 06:54:20;;;;;;;7.85;1.25;;;10.00;99.90;;;;;;5016385;28;20505;-42
2023/02/03 06:56:46;;;;;;;8.63;1.33;;;10.10;99.90;;;;;;5015769;28;20026;-47
2023/02/03 06:59:12;;;;;;;9.30;1.23;;;10.10;99.90;;;;;;5017486;28;20075;-42
2023/02/03 07:01:37;;;;;;;5.47;2.25;;;10.10;99.90;;;;;;5035700;28;20108;-48
2023/02/03 07:04:03;;;;;;;4.50;1.52;;;10.10;99.90;;;;;;5035606;28;20398;-45
2023/02/03 07:06:32;;;;;;;16.95;1.50;;;10.10;99.90;;;;;;5025908;28;20017;-46
2023/02/03 07:08:59;;;;;;;12.88;1.40;;;10.10;99.90;;;;;;5035469;28;20033;-43
2023/02/03 07:11:25;;;;;;;7.70;0.88;;;10.10;99.90;;;;;;5033764;28;20413;-45
2023/02/03 07:13:51;;;;;;;7.65;1.13;;;10.10;99.90;;;;;;5035330;28;20040;-42
2023/02/03 07:16:17;;;;;;;8.20;1.25;;;10.20;99.90;;;;;;5028825;28;20386;-40
2023/02/03 07:18:43;;;;;;;5.70;1.92;;;10.10;99.90;;;;;;5015475;28;20092;-40
2023/02/03 07:21:09;;;;;;;7.68;1.05;;;10.10;99.90;;;;;;5025073;28;20056;-43
2023/02/03 07:23:34;;;;;;;11.88;1.92;;;10.10;99.90;;;;;;5035151;28;20044;-51
2023/02/03 07:26:03;;;;;;;9.63;1.30;;;10.00;99.90;;;;;;5026430;28;20470;-47
2023/02/03 07:28:29;;;;;;;11.07;1.35;;;9.90;99.90;;;;;;5015461;28;20021;-46
2023/02/03 07:30:55;;;;;;;7.82;1.42;;;9.90;99.90;;;;;;5015198;28;20478;-43
2023/02/03 07:33:21;;;;;;;4.53;1.02;;;9.90;99.90;;;;;;5015428;28;20026;-42
2023/02/03 07:35:53;;;;;;;13.75;1.73;;;10.00;99.90;;;;;;5016606;28;20426;-47
2023/02/03 07:38:20;;;;;;;10.85;2.15;;;9.90;99.90;;;;;;5015240;28;20401;-49
2023/02/03 07:40:45;;;;;;;8.32;1.75;;;9.90;99.90;;;;;;5021959;28;20390;-45
2023/02/03 07:43:11;;;;;;;9.07;2.05;;;9.90;99.90;;;;;;5035003;28;20026;-41
2023/02/03 07:45:37;;;;;;;6.32;1.02;;;9.80;99.90;;;;;;5026239;28;20022;-46
2023/02/03 07:48:03;;;;;;;5.15;1.52;;;9.80;99.90;;;;;;5014783;28;20159;-47
2023/02/03 07:50:28;;;;;;;6.80;2.20;;;9.90;99.90;;;;;;5015250;28;20022;-46
2023/02/03 07:52:54;;;;;;;12.35;1.65;;;9.90;99.90;;;;;;5018136;28;20032;-48
2023/02/03 07:55:21;;;;;;;4.63;1.25;;;9.80;99.90;;;;;;5024256;28;20394;-57
2023/02/03 07:57:47;;;;;;;8.63;1.55;;;9.90;99.90;;;;;;5028093;28;20029;-47
2023/02/03 08:00:15;;;;;;;9.30;1.88;;;10.00;99.90;;;;;;5028660;28;20033;-40
2023/02/03 08:02:41;;;;;;;;;;;10.00;99.90;;;;;;5033436;28;20034;-41
2023/02/03 08:05:07;;;;;;;9.65;1.27;;;10.00;99.90;;;;;;5026501;28;20063;-36
2023/02/03 08:07:33;;;;;;;11.95;2.22;;;10.00;99.90;;;;;;5034581;28;20450;-38
2023/02/03 08:09:58;;;;;;;15.95;2.05;;;9.90;99.90;;;;;;5034658;28;20026;-40
2023/02/03 08:12:24;;;;;;;8.85;1.63;;;10.00;99.90;;;;;;5034216;28;20029;-37
2023/02/03 08:14:50;;;;;;;7.95;1.65;;;10.10;99.90;;;;;;5024964;28;20028;-40
2023/02/03 08:17:15;;;;;;;5.55;1.33;;;10.10;99.90;;;;;;5031739;28;20512;-39
2023/02/03 08:19:42;;;;;;;9.35;2.00;;;10.10;99.90;;;;;;5034210;28;20033;-41
2023/02/03 08:22:07;;;;;;;4.88;1.40;;;10.10;99.90;;;;;;5033087;28;20079;-37
2023/02/03 08:24:33;;;;;;;10.20;1.20;;;10.10;99.90;;;;;;5034289;28;20034;-34
2023/02/03 08:27:00;;;;;;;10.38;1.27;;;10.00;99.90;;;;;;5015113;28;20047;-37
2023/02/03 08:29:26;;;;;;;8.95;1.13;;;10.00;99.90;;;;;;5014234;28;20026;-41
2023/02/03 08:31:53;;;;;;;8.68;1.65;;;10.10;99.90;;;;;;5016421;28;20030;-41
2023/02/03 08:34:18;;;;;;;4.75;1.40;;;10.10;99.90;;;;;;5031733;28;20490;-41
2023/02/03 08:36:44;;;;;;;7.57;1.23;;;10.20;99.90;;;;;;5033072;28;20041;-38
2023/02/03 08:39:10;;;;;;;7.30;1.02;;;10.20;99.90;;;;;;5033157;28;20041;-40
2023/02/03 08:41:35;;;;;;;11.68;1.67;;;10.20;99.90;;;;;;5031022;28;20021;-46
2023/02/03 08:44:01;;;;;;;11.18;1.35;;;10.20;99.90;;;;;;5022829;28;20033;-43
2023/02/03 08:46:27;;;;;;;9.13;1.75;;;10.20;99.90;;;;;;5017439;28;20021;-44
2023/02/03 08:48:55;;;;;;;16.45;2.05;;;10.20;99.90;;;;;;5025642;28;20042;-40
2023/02/03 08:51:20;;;;;;;;;;;10.20;99.90;;;;;;5033955;28;20036;-44
2023/02/03 08:53:46;;;;;;;16.70;1.88;;;10.20;99.90;;;;;;5032337;28;19909;-46
2023/02/03 08:56:12;;;;;;;7.38;1.65;;;10.20;99.90;;;;;;5028581;28;20029;-44
2023/02/03 08:58:38;;;;;;;5.43;1.20;;;10.20;99.90;;;;;;5014031;28;20033;-42
2023/02/03 09:01:08;;;;;;;7.43;1.83;;;10.20;99.90;;;;;;5013691;28;20470;-43
2023/02/03 09:03:34;;;;;;;9.88;1.52;;;10.30;99.90;;;;;;5014207;28;20026;-48
2023/02/03 09:06:00;;;;;;;7.85;1.92;;;10.30;99.90;;;;;;5026371;28;20056;-42
2023/02/03 09:08:25;;;;;;;6.45;1.10;;;10.30;99.90;;;;;;5026494;28;20469;-44
2023/02/03 09:10:51;;;;;;;8.57;1.67;;;10.40;99.90;;;;;;5033913;28;20451;-49
2023/02/03 09:13:17;;;;;;;10.65;1.55;;;10.40;99.90;;;;;;5024222;28;20056;-50
2023/02/03 09:15:42;;;;;;;9.00;1.20;;;10.40;99.90;;;;;;5026817;28;20021;-44
2023/02/03 09:18:08;;;;;;;5.10;1.30;;;10.50;99.90;;;;;;5028620;28;20027;-47
2023/02/03 09:20:33;;;;;;;7.07;2.00;;;10.50;99.90;;;;;;5027119;28;20042;-45
2023/02/03 09:22:59;;;;;;;12.93;1.73;;;10.60;99.90;;;;;;5020967;28;20057;-47
2023/02/03 09:25:25;;;;;;;7.25;1.42;;;10.60;99.90;;;;;;5021875;28;20061;-45
2023/02/03 09:27:51;;;;;;;10.90;1.33;;;10.60;99.90;;;;;;5025105;28;20466;-45
2023/02/03 09:30:16;;;;;;;9.95;1.50;;;10.70;99.90;;;;;;5027741;28;20032;-43
2023/02/03 09:32:42;;;;;;;10.43;1.40;;;10.80;99.90;;;;;;5032056;28;20453;-45
2023/02/03 09:35:08;;;;;;;17.13;1.30;;;10.90;99.90;;;;;;5031462;28;20401;-47
2023/02/03 09:37:33;;;;;;;4.82;1.77;;;10.80;99.90;;;;;;5024730;28;20021;-45
2023/02/03 09:39:59;;;;;;;5.72;1.10;;;10.80;99.90;;;;;;5019486;28;20017;-45
2023/02/03 09:43:05;;;;;;;5.85;1.35;;;10.90;99.90;;;;;;5033091;28;20026;-42
2023/02/03 09:45:31;;;;;;;8.80;1.73;;;10.80;99.90;;;;;;5010988;28;20497;-39
2023/02/03 09:48:15;;;;;;;2.75;0.90;;;10.80;99.90;;;;;;5014808;28;20445;-38
2023/02/03 09:50:43;;;;;;;3.03;1.45;;;10.70;99.90;;;;;;5014594;28;20467;-35
2023/02/03 09:53:38;;;;;;;5.53;1.08;;;10.70;99.90;;;;;;5022550;28;20021;-39
2023/02/03 09:56:03;;;;;;;5.88;1.52;;;10.70;99.90;;;;;;5025648;28;20021;-40
2023/02/03 09:58:33;;;;;;;14.27;1.35;;;10.60;99.90;;;;;;5019073;28;20431;-38
2023/02/03 10:01:03;;;;;;;9.80;1.77;;;10.60;99.90;;;;;;5024637;28;20029;-41
2023/02/03 10:03:43;;;;;;;2.80;1.20;;;10.70;99.90;;;;;;5014642;28;20486;-43
2023/02/03 10:06:27;;;;;;;5.13;1.10;;;10.70;99.90;;;;;;5027415;28;20344;-46
2023/02/03 10:09:07;;;;;;;7.72;1.92;;;10.80;99.90;;;;;;5031467;28;20033;-42
2023/02/03 10:11:52;;;;;;;7.22;1.00;;;10.80;99.90;;;;;;5024694;28;20041;-40
2023/02/03 10:14:48;;;;;;;6.18;1.10;;;10.70;99.90;;;;;;5026955;28;20037;-40
2023/02/03 10:17:29;;;;;;;9.40;1.10;;;10.80;99.90;;;;;;5022879;28;20037;-50
2023/02/03 10:20:07;;;;;;;6.05;1.80;;;10.70;99.90;;;;;;5017244;28;20085;-48
2023/02/03 10:22:46;;;;;;;;;;;10.70;99.90;;;;;;5023676;28;20068;-47
2023/02/03 10:25:23;;;;;;;8.20;1.20;;;10.70;99.90;;;;;;5033888;28;19921;-44
2023/02/03 10:27:54;;;;;;;12.77;1.70;;;10.70;99.90;;;;;;5033703;28;20025;-47
2023/02/03 10:30:20;;;;;;;13.27;1.13;;;10.60;99.90;;;;;;5034236;28;20108;-47
2023/02/03 10:32:52;;;;;;;7.15;0.95;;;10.60;99.90;;;;;;5036280;28;20109;-42
2023/02/03 10:35:19;;;;;;;11.75;1.63;;;10.70;99.90;;;;;;5033428;28;20029;-42
2023/02/03 10:37:53;;;;;;;14.55;2.25;;;10.70;99.90;;;;;;5029040;28;20053;-40
2023/02/03 10:40:23;;;;;;;12.07;1.33;;;10.70;99.90;;;;;;5034955;28;20065;-40
2023/02/03 10:45:37;;;;;;;7.90;0.95;;;10.70;99.90;;;;;;5019642;28;20368;-40
2023/02/03 10:48:08;;;;;;;5.38;1.30;;;10.80;99.90;;;;;;5023667;28;20427;-42
2023/02/03 10:50:37;;;;;;;5.43;1.08;;;10.60;99.90;;;;;;5015768;28;20490;-44
2023/02/03 10:53:17;;;;;;;9.43;1.63;;;10.70;99.90;;;;;;5029387;28;20635;-39
2023/02/03 10:55:45;;;;;;;19.80;2.35;;;10.70;99.90;;;;;;5024759;28;20497;-42
2023/02/03 10:58:21;;;;;;;6.18;1.27;;;10.70;99.90;;;;;;5027439;28;20475;-43
2023/02/03 11:00:55;;;;;;;6.28;1.58;;;10.80;99.90;;;;;;5028806;28;20028;-43
2023/02/03 11:03:26;;;;;;;9.00;1.25;;;10.80;99.90;;;;;;5030718;28;20032;-43
2023/02/03 11:06:04;;;;;;;6.20;1.20;;;10.80;99.90;;;;;;5019965;28;20505;-42
2023/02/03 11:08:31;;;;;;;3.00;1.08;;;10.90;99.90;;;;;;5021414;28;20101;-45
2023/02/03 11:11:05;;;;;;;1.45;1.33;;;10.90;99.90;;;;;;5034216;28;20187;-48
2023/02/03 11:13:31;;;;;;;6.05;1.42;;;11.00;99.90;;;;;;5016881;28;20026;-47
2023/02/03 11:16:17;;;;;;;9.57;1.52;;;10.90;99.90;;;;;;5024760;28;20477;-41
2023/02/03 11:19:02;;;;;;;11.55;1.95;;;11.00;99.90;;;;;;5015049;28;20034;-43
2023/02/03 11:21:41;;;;;;;9.38;1.58;;;11.00;99.90;;;;;;5028728;28;20041;-39
2023/02/03 11:24:17;;;;;;;5.65;1.27;;;11.00;99.90;;;;;;5026641;28;20476;-40
2023/02/03 11:26:45;;;;;;;6.97;1.25;;;11.00;99.90;;;;;;5033843;28;20048;-42
2023/02/03 11:29:17;;;;;;;4.03;1.00;;;11.00;99.90;;;;;;5022553;28;20510;-43
2023/02/03 11:31:47;;;;;;;2.70;1.10;;;11.00;99.90;;;;;;5026707;28;20449;-43
2023/02/03 11:34:24;;;;;;;4.43;1.27;;;11.10;99.90;;;;;;5030826;28;20091;-43
2023/02/03 11:36:50;;;;;;;6.03;1.73;;;11.10;99.90;;;;;;5036411;28;20163;-41
2023/02/03 11:39:24;;;;;;;6.20;1.60;;;11.10;99.90;;;;;;5034919;28;20507;-45
2023/02/03 11:41:50;;;;;;;14.43;1.33;;;11.00;99.90;;;;;;5036216;28;20067;-44
2023/02/03 11:44:27;;;;;;;7.55;1.65;;;11.00;99.90;;;;;;5034941;28;20414;-40
2023/02/03 11:47:08;;;;;;;9.35;1.30;;;11.00;99.90;;;;;;5030394;28;20021;-41
2023/02/03 11:49:44;;;;;;;5.93;1.05;;;11.00;99.90;;;;;;5029440;28;20032;-46
2023/02/03 11:52:15;;;;;;;10.38;1.52;;;11.10;99.90;;;;;;5025485;28;20038;-41
2023/02/03 11:55:03;;;;;;;11.95;1.48;;;11.10;99.90;;;;;;5026932;28;20034;-47
2023/02/03 11:57:59;;;;;;;13.70;1.15;;;11.00;99.90;;;;;;5027599;28;20500;-46
2023/02/03 12:00:33;;;;;;;7.82;1.27;;;11.00;99.90;;;;;;5035026;28;20515;-40
2023/02/03 12:03:05;;;;;;;8.52;1.42;;;10.90;99.90;;;;;;5025866;28;20040;-42
2023/02/03 12:05:58;;;;;;;5.82;1.70;;;10.90;99.90;;;;;;5034422;28;20025;-42
2023/02/03 12:08:31;;;;;;;11.57;1.20;;;10.90;99.90;;;;;;5021734;28;20034;-47
2023/02/03 12:11:00;;;;;;;5.35;1.58;;;10.90;99.90;;;;;;5031831;28;20045;-43
2023/02/03 12:13:50;;;;;;;8.98;1.42;;;10.90;99.90;;;;;;5027062;28;20473;-46
2023/02/03 12:16:41;;;;;;;5.80;1.67;;;10.80;99.90;;;;;;5017531;28;20393;-41
2023/02/03 12:19:17;;;;;;;7.78;1.40;;;10.90;99.90;;;;;;5024153;28;20034;-45
2023/02/03 12:21:46;;;;;;;5.63;1.60;;;10.80;99.90;;;;;;5018762;28;20493;-43
2023/02/03 12:24:52;;;;;;;3.53;1.63;;;10.80;99.90;;;;;;5032976;28;20385;-43
2023/02/03 12:27:26;;;;;;;5.82;1.77;;;10.80;99.90;;;;;;5030261;28;20104;-44
2023/02/03 12:30:04;;;;;;;6.13;1.70;;;10.70;99.90;;;;;;5030348;28;20037;-42
2023/02/03 12:32:49;;;;;;;6.82;1.40;;;10.70;99.90;;;;;;5030256;28;20029;-45
2023/02/03 12:35:27;;;;;;;8.30;2.00;;;10.70;99.90;;;;;;5033334;28;20094;-46
2023/02/03 12:38:06;;;;;;;5.70;1.00;;;10.70;99.90;;;;;;5027273;28;20483;-46
2023/02/03 12:40:41;;;;;;;11.40;2.13;;;10.60;99.90;;;;;;5017882;28;20034;-49
2023/02/03 12:43:32;;;;;;;10.77;2.00;;;10.50;99.90;;;;;;5016705;28;20052;-44
2023/02/03 12:46:03;;;;;;;4.85;1.73;;;10.40;99.90;;;;;;5030547;28;20091;-42
2023/02/03 12:48:41;;;;;;;8.82;1.45;;;10.30;99.90;;;;;;5026446;28;20021;-47
2023/02/03 12:51:14;;;;;;;15.27;1.98;;;10.20;99.90;;;;;;5025907;28;20486;-44
2023/02/03 12:53:49;;;;;;;7.07;1.98;;;10.20;99.90;;;;;;5025846;28;20026;-47
2023/02/03 12:56:22;;;;;;;12.20;1.73;;;10.20;99.90;;;;;;5028612;28;20037;-43
2023/02/03 12:59:03;;;;;;;8.07;1.48;;;10.10;99.90;;;;;;5014100;28;20426;-44
2023/02/03 13:01:54;;;;;;;15.27;2.25;;;10.10;99.90;;;;;;5014016;28;20022;-41
2023/02/03 13:04:44;;;;;;;8.68;1.38;;;10.00;99.90;;;;;;5026930;28;20069;-39
2023/02/03 13:07:09;;;;;;;5.03;1.30;;;10.00;99.90;;;;;;5030393;28;20029;-45
2023/02/03 13:09:47;;;;;;;7.90;1.88;;;9.90;99.90;;;;;;5013739;28;20493;-40
2023/02/03 13:12:49;;;;;;;11.80;2.00;;;9.80;99.90;;;;;;5025493;28;20517;-41